This is the latest recevied weather packets stored in our database for station/object CE4RG-12. If no packets are shown the sender has not sent any weather packets the latest 10 day(s).
| Time | Temp. | Humidity | Pressure | Rain* | Wind** | Luminosity | Snow |
|---|---|---|---|---|---|---|---|
| 1777315983 | 20.56° C | 39% | 960.6 hPa | - | - | - | - |
| 1777315383 | 20.56° C | 39% | 960.6 hPa | - | - | - | - |
| 1777314783 | 20.56° C | 39% | 960.7 hPa | - | - | - | - |
| 1777314183 | 20.56° C | 39% | 960.7 hPa | - | - | - | - |
| 1777313583 | 20.56° C | 39% | 960.7 hPa | - | - | - | - |
| 1777312983 | 20.56° C | 39% | 960.8 hPa | - | - | - | - |
| 1777312383 | 20.56° C | 39% | 960.6 hPa | - | - | - | - |
| 1777311783 | 20.56° C | 39% | 960.8 hPa | - | - | - | - |
| 1777311183 | 20° C | 40% | 960.9 hPa | - | - | - | - |
| 1777310583 | 20° C | 40% | 960.9 hPa | - | - | - | - |
| 1777309982 | 18.89° C | 40% | 959.3 hPa | - | - | - | - |
| 1777309382 | 20° C | 40% | 961 hPa | - | - | - | - |
| 1777308782 | 20° C | 40% | 961 hPa | - | - | - | - |
| 1777308182 | 20° C | 40% | 961.1 hPa | - | - | - | - |
| 1777307582 | 19.44° C | 40% | 961.2 hPa | - | - | - | - |
| 1777306982 | 19.44° C | 40% | 961.2 hPa | - | - | - | - |
| 1777306382 | 19.44° C | 41% | 961.1 hPa | - | - | - | - |
| 1777305782 | 19.44° C | 41% | 961.1 hPa | - | - | - | - |
| 1777305182 | 18.89° C | 40% | 961 hPa | - | - | - | - |
| 1777304582 | 18.89° C | 41% | 961.2 hPa | - | - | - | - |
| 1777303982 | 18.89° C | 41% | 961.3 hPa | - | - | - | - |
| 1777303381 | 18.33° C | 41% | 961.3 hPa | - | - | - | - |
| 1777302781 | 18.33° C | 42% | 961.3 hPa | - | - | - | - |
| 1777302181 | 18.33° C | 42% | 961.3 hPa | - | - | - | - |
| 1777301581 | 17.78° C | 42% | 961.3 hPa | - | - | - | - |
* Rain since midnight (hover to see other rain measurements)
** Current wind speed in m/s (hover to see current wind gust speed)